Time;durP1;ratioP1;P1;durP2;ratioP2;P2;SDS_P1;SDS_P2;PMS_P1;PMS_P2;Temp;Humidity;BMP_temperature;BMP_pressure;BME280_temperature;BME280_humidity;BME280_pressure;Samples;Min_cycle;Max_cycle;Signal;HPM_P1;HPM_P2
2023/04/17 00:01:08;;;;;;;7.18;4.10;;;19.20;1.00;;;;;;5031799;28;20084;-35
2023/04/17 00:03:36;;;;;;;7.88;4.25;;;19.20;1.00;;;;;;5034710;28;20072;-35
2023/04/17 00:06:04;;;;;;;9.10;3.92;;;19.20;1.00;;;;;;5035743;28;20083;-35
2023/04/17 00:08:32;;;;;;;7.53;4.15;;;19.10;1.00;;;;;;5035517;28;20107;-35
2023/04/17 00:10:59;;;;;;;6.55;3.72;;;19.10;1.00;;;;;;5035690;28;20068;-35
2023/04/17 00:13:35;;;;;;;5.47;3.97;;;19.10;1.00;;;;;;5034767;28;20056;-35
2023/04/17 00:16:02;;;;;;;7.53;4.60;;;19.10;1.00;;;;;;5035336;28;20041;-35
2023/04/17 00:18:28;;;;;;;5.57;3.70;;;19.00;1.00;;;;;;5035417;28;20107;-35
2023/04/17 00:20:55;;;;;;;7.15;4.00;;;19.00;1.00;;;;;;5035384;28;20073;-35
2023/04/17 00:23:24;;;;;;;6.10;3.75;;;19.00;1.00;;;;;;5034680;28;20045;-36
2023/04/17 00:25:51;;;;;;;8.73;4.57;;;19.00;1.00;;;;;;5035289;28;20116;-35
2023/04/17 00:28:18;;;;;;;5.53;3.55;;;19.00;1.00;;;;;;5035227;28;20065;-35
2023/04/17 00:30:45;;;;;;;6.47;4.25;;;19.00;1.00;;;;;;5035174;28;20485;-35
2023/04/17 00:33:12;;;;;;;6.28;4.22;;;19.00;1.00;;;;;;5025886;28;20108;-35
2023/04/17 00:35:39;;;;;;;10.10;3.70;;;18.90;1.00;;;;;;5028388;28;20037;-35
2023/04/17 00:38:07;;;;;;;6.00;3.97;;;18.90;1.00;;;;;;5025677;28;20580;-35
2023/04/17 00:40:35;;;;;;;8.18;4.80;;;18.90;1.00;;;;;;5033660;28;20052;-34
2023/04/17 00:43:05;;;;;;;7.38;4.03;;;18.90;1.00;;;;;;5034326;28;20527;-33
2023/04/17 00:45:33;;;;;;;5.55;4.15;;;18.90;1.00;;;;;;5034797;28;20298;-33
2023/04/17 00:48:01;;;;;;;8.13;3.83;;;18.80;1.00;;;;;;5033525;28;20045;-33
2023/04/17 00:50:29;;;;;;;9.13;3.88;;;18.80;1.00;;;;;;5033623;28;20053;-34
2023/04/17 00:52:57;;;;;;;7.28;4.35;;;18.80;1.00;;;;;;5034104;28;20049;-34
2023/04/17 00:55:25;;;;;;;5.10;4.10;;;18.80;1.00;;;;;;5033403;28;20050;-34
2023/04/17 00:57:52;;;;;;;5.78;3.30;;;18.70;1.00;;;;;;5033479;28;20045;-34
2023/04/17 01:00:19;;;;;;;6.72;3.90;;;18.70;1.00;;;;;;5034711;28;20049;-34
2023/04/17 01:02:46;;;;;;;5.95;3.85;;;18.70;1.00;;;;;;5032485;28;20055;-34
2023/04/17 01:05:14;;;;;;;7.85;3.75;;;18.70;1.00;;;;;;5033310;28;20068;-34
2023/04/17 01:07:41;;;;;;;6.45;4.18;;;18.70;1.00;;;;;;5034627;28;20103;-34
2023/04/17 01:10:09;;;;;;;8.07;4.38;;;18.70;1.00;;;;;;5034510;28;20044;-34
2023/04/17 01:12:36;;;;;;;5.10;3.42;;;18.70;1.00;;;;;;5032267;28;20053;-34
2023/04/17 01:15:04;;;;;;;8.23;4.00;;;18.70;1.00;;;;;;5032803;28;20074;-33
2023/04/17 01:17:31;;;;;;;5.30;3.65;;;18.70;1.00;;;;;;5033111;28;20128;-34
2023/04/17 01:19:58;;;;;;;7.90;3.53;;;18.60;1.00;;;;;;5032996;28;20144;-34
2023/04/17 01:22:25;;;;;;;7.05;4.55;;;18.60;1.00;;;;;;5032647;28;20424;-34
2023/04/17 01:24:56;;;;;;;5.07;3.90;;;18.60;1.00;;;;;;5032622;28;20615;-34
2023/04/17 01:27:25;;;;;;;7.00;3.42;;;18.60;1.00;;;;;;5032956;28;20394;-33
2023/04/17 01:29:53;;;;;;;7.00;4.28;;;18.50;1.00;;;;;;5033958;28;20048;-33
2023/04/17 01:32:20;;;;;;;7.32;4.32;;;18.50;1.00;;;;;;5032508;28;20037;-33
2023/04/17 01:34:47;;;;;;;7.13;4.20;;;18.50;1.00;;;;;;5032237;28;20057;-34
2023/04/17 01:37:14;;;;;;;6.93;4.20;;;18.50;1.00;;;;;;5032792;28;20140;-34
2023/04/17 01:39:40;;;;;;;7.05;4.28;;;18.50;1.00;;;;;;5023864;28;20576;-34
2023/04/17 01:42:07;;;;;;;7.18;4.53;;;18.50;1.00;;;;;;5012770;28;20049;-33
2023/04/17 01:44:36;;;;;;;9.20;4.07;;;18.50;1.00;;;;;;5011750;28;20129;-33
2023/04/17 01:47:03;;;;;;;4.72;3.70;;;18.50;1.00;;;;;;5014222;28;20045;-34
2023/04/17 01:49:30;;;;;;;5.13;3.58;;;18.50;1.00;;;;;;5012756;28;20069;-33
2023/04/17 01:51:56;;;;;;;7.75;4.63;;;18.40;1.00;;;;;;5012701;28;20076;-34
2023/04/17 01:54:23;;;;;;;6.10;4.38;;;18.40;1.00;;;;;;5011937;28;20086;-34
2023/04/17 01:56:50;;;;;;;7.05;4.13;;;18.40;1.00;;;;;;5012419;28;20046;-34
2023/04/17 01:59:17;;;;;;;5.40;3.70;;;18.40;1.00;;;;;;5013747;28;20038;-34
2023/04/17 02:01:44;;;;;;;6.22;4.10;;;18.40;1.00;;;;;;5012555;28;20448;-34
2023/04/17 02:04:11;;;;;;;6.55;4.32;;;18.30;1.00;;;;;;5012944;28;20125;-34
2023/04/17 02:06:38;;;;;;;7.40;4.82;;;18.30;1.00;;;;;;5013695;28;20050;-34
2023/04/17 02:09:05;;;;;;;6.22;3.65;;;18.30;1.00;;;;;;5013582;28;20467;-34
2023/04/17 02:11:35;;;;;;;4.85;3.45;;;18.30;1.00;;;;;;5013615;28;20045;-34
2023/04/17 02:14:02;;;;;;;6.90;4.07;;;18.30;1.00;;;;;;5011507;28;20053;-34
2023/04/17 02:16:30;;;;;;;5.18;3.35;;;18.30;1.00;;;;;;5012002;28;20046;-34
2023/04/17 02:18:57;;;;;;;7.93;4.60;;;18.30;1.00;;;;;;5012223;28;20485;-33
2023/04/17 02:21:25;;;;;;;5.35;3.83;;;18.20;1.00;;;;;;5012192;28;20132;-34
2023/04/17 02:23:52;;;;;;;7.75;3.72;;;18.20;1.00;;;;;;5012145;28;20045;-34
2023/04/17 02:26:19;;;;;;;5.13;3.97;;;18.30;1.00;;;;;;5012791;28;20050;-34
2023/04/17 02:28:46;;;;;;;6.03;4.55;;;18.20;1.00;;;;;;5011993;28;20045;-34
2023/04/17 02:31:13;;;;;;;6.82;4.78;;;18.20;1.00;;;;;;5013287;28;20049;-34
2023/04/17 02:33:40;;;;;;;6.40;4.30;;;18.20;1.00;;;;;;5011215;28;20057;-34
2023/04/17 02:36:09;;;;;;;5.93;4.00;;;18.20;1.00;;;;;;5011854;28;20070;-34
2023/04/17 02:38:39;;;;;;;6.28;3.80;;;18.20;1.00;;;;;;5011853;28;20046;-34
2023/04/17 02:41:06;;;;;;;7.13;4.55;;;18.20;1.00;;;;;;5011776;28;20097;-34
2023/04/17 02:43:33;;;;;;;6.72;3.75;;;18.20;1.00;;;;;;5010979;28;20041;-34
2023/04/17 02:46:00;;;;;;;8.32;4.30;;;18.10;1.00;;;;;;5045372;22;20049;-35
2023/04/17 02:48:27;;;;;;;5.65;4.43;;;18.10;1.00;;;;;;5040290;28;20048;-36
2023/04/17 02:50:54;;;;;;;7.15;4.03;;;18.20;1.00;;;;;;5043711;28;20520;-36
2023/04/17 02:53:21;;;;;;;6.60;3.97;;;18.10;1.00;;;;;;5046772;28;20055;-36
2023/04/17 02:55:49;;;;;;;6.30;3.92;;;18.10;1.00;;;;;;5045560;28;20095;-35
2023/04/17 02:58:19;;;;;;;6.45;4.28;;;18.10;1.00;;;;;;5051126;28;20037;-36
2023/04/17 03:00:45;;;;;;;7.72;3.78;;;18.10;1.00;;;;;;5051027;28;20040;-36
2023/04/17 03:03:15;;;;;;;7.22;3.72;;;18.00;1.00;;;;;;5050141;28;20076;-36
2023/04/17 03:05:42;;;;;;;6.40;4.20;;;18.10;1.00;;;;;;5050906;28;20099;-35
2023/04/17 03:08:09;;;;;;;6.68;4.00;;;18.10;1.00;;;;;;5050941;28;20420;-36
2023/04/17 03:10:43;;;;;;;7.53;4.13;;;18.00;1.00;;;;;;5050883;28;20578;-35
2023/04/17 03:13:10;;;;;;;6.25;3.83;;;18.00;1.00;;;;;;5050105;28;20053;-35
2023/04/17 03:15:36;;;;;;;8.60;4.10;;;18.00;1.00;;;;;;5050619;28;20408;-35
2023/04/17 03:18:03;;;;;;;5.97;3.45;;;18.00;1.00;;;;;;5050696;28;20102;-35
2023/04/17 03:20:31;;;;;;;6.68;3.83;;;18.00;1.00;;;;;;5050688;28;20455;-35
2023/04/17 03:22:57;;;;;;;6.30;4.05;;;18.00;1.00;;;;;;5051549;28;20047;-35
2023/04/17 03:25:24;;;;;;;5.20;3.38;;;18.00;1.00;;;;;;5050569;28;20068;-35
2023/04/17 03:27:52;;;;;;;5.13;3.17;;;18.00;1.00;;;;;;5050838;28;20051;-35
2023/04/17 03:30:22;;;;;;;5.43;3.10;;;17.90;1.00;;;;;;5050592;28;20088;-35
2023/04/17 03:32:51;;;;;;;4.53;3.60;;;17.90;1.00;;;;;;5049864;28;20069;-35
2023/04/17 03:35:18;;;;;;;5.78;3.38;;;17.90;1.00;;;;;;5050238;28;20041;-35
2023/04/17 03:37:44;;;;;;;5.75;3.95;;;17.90;1.00;;;;;;5051897;28;20111;-35
2023/04/17 03:40:12;;;;;;;4.63;3.47;;;17.90;1.00;;;;;;5050574;28;20045;-35
2023/04/17 03:42:42;;;;;;;5.55;3.90;;;17.90;1.00;;;;;;5049761;28;20416;-35
2023/04/17 03:45:09;;;;;;;7.07;4.55;;;17.90;1.00;;;;;;5050211;28;20123;-35
2023/04/17 03:47:37;;;;;;;5.38;3.72;;;17.90;1.00;;;;;;5051739;28;20530;-35
2023/04/17 03:50:05;;;;;;;7.28;4.13;;;17.90;1.00;;;;;;5050692;28;20084;-35
2023/04/17 03:52:38;;;;;;;6.63;3.83;;;17.80;1.00;;;;;;5049788;28;20045;-35
2023/04/17 03:55:06;;;;;;;6.00;3.83;;;17.90;1.00;;;;;;5050343;28;20079;-35
2023/04/17 03:57:32;;;;;;;5.55;4.00;;;17.80;1.00;;;;;;5050195;28;20069;-35
2023/04/17 03:59:59;;;;;;;5.80;3.85;;;17.80;1.00;;;;;;5050407;28;20037;-35
2023/04/17 04:02:33;;;;;;;6.40;3.47;;;17.80;1.00;;;;;;5051150;28;20049;-35
2023/04/17 04:05:00;;;;;;;6.72;3.95;;;17.80;1.00;;;;;;5049834;28;20037;-35
2023/04/17 04:07:28;;;;;;;7.03;4.07;;;17.80;1.00;;;;;;5050319;28;20056;-35
2023/04/17 04:09:55;;;;;;;9.82;3.65;;;17.80;1.00;;;;;;5050360;28;20103;-35
2023/04/17 04:12:22;;;;;;;7.55;4.75;;;17.70;1.00;;;;;;5038270;28;20053;-35
2023/04/17 04:14:49;;;;;;;6.20;4.88;;;17.80;1.00;;;;;;5018215;28;20068;-35
2023/04/17 04:17:16;;;;;;;8.02;4.22;;;17.70;1.00;;;;;;5032473;28;20040;-35
2023/04/17 04:19:44;;;;;;;6.35;3.85;;;17.70;1.00;;;;;;5047903;28;20444;-35
2023/04/17 04:22:12;;;;;;;5.97;4.30;;;17.70;1.00;;;;;;5047409;28;20504;-35
2023/04/17 04:24:48;;;;;;;8.10;5.00;;;17.70;1.00;;;;;;5049599;28;20053;-35
2023/04/17 04:27:21;;;;;;;5.47;3.70;;;17.70;1.00;;;;;;5047555;28;20049;-35
2023/04/17 04:29:49;;;;;;;7.57;4.43;;;17.70;1.00;;;;;;5049239;28;20061;-35
2023/04/17 04:32:19;;;;;;;8.88;4.43;;;17.70;1.00;;;;;;5049747;28;20041;-35
2023/04/17 04:34:49;;;;;;;9.68;5.15;;;17.70;1.00;;;;;;5049591;28;20102;-35
2023/04/17 04:37:20;;;;;;;9.95;4.85;;;17.60;1.00;;;;;;5049889;28;20417;-35
2023/04/17 04:39:52;;;;;;;10.98;4.75;;;17.60;1.00;;;;;;5049944;28;20049;-35
2023/04/17 04:42:21;;;;;;;6.93;4.38;;;17.60;1.00;;;;;;5049617;28;20047;-35
2023/04/17 04:44:58;;;;;;;6.07;4.28;;;17.60;1.00;;;;;;5049403;28;20057;-35
2023/04/17 04:47:28;;;;;;;8.23;4.57;;;17.60;1.00;;;;;;5050055;28;20141;-35
2023/04/17 04:49:55;;;;;;;6.72;4.45;;;17.60;1.00;;;;;;5053270;28;20056;-35
2023/04/17 04:52:22;;;;;;;12.23;4.85;;;17.60;1.00;;;;;;5047421;28;20955;-35
2023/04/17 04:54:53;;;;;;;7.78;4.30;;;17.50;1.00;;;;;;5028518;28;20057;-35
2023/04/17 04:57:53;;;;;;;6.45;4.50;;;17.60;1.00;;;;;;5027781;28;20509;-35
2023/04/17 05:00:22;;;;;;;7.40;4.13;;;17.50;1.00;;;;;;4973096;28;20107;-35
2023/04/17 05:02:52;;;;;;;5.20;4.05;;;17.60;1.00;;;;;;5036386;28;20045;-35
2023/04/17 05:05:24;;;;;;;6.97;4.50;;;17.60;1.00;;;;;;5053148;28;20045;-35
2023/04/17 05:07:53;;;;;;;6.55;4.43;;;17.50;1.00;;;;;;5052996;28;20045;-35
2023/04/17 05:10:24;;;;;;;7.20;4.85;;;17.50;1.00;;;;;;5053126;28;20080;-35
2023/04/17 05:12:56;;;;;;;;;;;17.50;1.00;;;;;;5053950;28;20060;-35
2023/04/17 05:15:23;;;;;;;6.22;3.95;;;17.50;1.00;;;;;;5054351;28;19952;-35
2023/04/17 05:17:50;;;;;;;8.73;4.32;;;17.50;1.00;;;;;;5054140;28;20048;-35
2023/04/17 05:20:17;;;;;;;7.18;4.93;;;17.40;1.00;;;;;;5052887;28;20496;-35
2023/04/17 05:22:49;;;;;;;8.63;4.55;;;17.40;1.00;;;;;;5051995;28;20390;-35
2023/04/17 05:25:15;;;;;;;10.35;4.75;;;17.40;1.00;;;;;;5052688;28;20048;-35
2023/04/17 05:27:42;;;;;;;6.65;4.38;;;17.40;1.00;;;;;;5052657;28;20079;-35
2023/04/17 05:30:11;;;;;;;8.00;5.30;;;17.40;1.00;;;;;;5052765;28;20083;-35
2023/04/17 05:32:39;;;;;;;6.47;4.63;;;17.40;1.00;;;;;;5051903;28;20048;-35
2023/04/17 05:35:19;;;;;;;5.78;4.40;;;17.40;1.00;;;;;;5052777;28;20379;-35
2023/04/17 05:37:48;;;;;;;6.65;4.60;;;17.40;1.00;;;;;;5052659;28;20068;-35
2023/04/17 05:40:15;;;;;;;8.80;5.13;;;17.40;1.00;;;;;;5052519;28;20052;-35
2023/04/17 05:43:24;;;;;;;8.40;5.03;;;17.40;1.00;;;;;;5051752;28;20095;-35
2023/04/17 05:46:17;;;;;;;9.93;4.97;;;17.40;1.00;;;;;;4955446;28;20090;-35
2023/04/17 05:49:15;;;;;;;6.97;4.75;;;17.40;1.00;;;;;;4947006;28;20268;-35
2023/04/17 05:51:59;;;;;;;8.02;4.68;;;17.40;1.00;;;;;;4956376;28;20117;-35
2023/04/17 05:54:29;;;;;;;5.22;4.43;;;17.30;1.00;;;;;;4971606;28;20054;-35
2023/04/17 05:56:56;;;;;;;5.63;4.18;;;17.30;1.00;;;;;;4972360;28;20051;-35
2023/04/17 05:59:24;;;;;;;8.18;5.22;;;17.30;1.00;;;;;;4972283;28;20070;-35
2023/04/17 06:01:51;;;;;;;6.50;4.07;;;17.30;1.00;;;;;;4972297;28;20505;-35
2023/04/17 06:04:21;;;;;;;9.15;5.50;;;17.30;1.00;;;;;;4955389;28;20039;-35
2023/04/17 06:06:49;;;;;;;7.85;4.65;;;17.30;1.00;;;;;;4971896;28;20533;-35
2023/04/17 06:09:16;;;;;;;7.43;4.28;;;17.30;1.00;;;;;;4955980;28;20050;-35
2023/04/17 06:11:43;;;;;;;5.20;4.03;;;17.30;1.00;;;;;;4972196;28;20054;-35
2023/04/17 06:14:11;;;;;;;7.60;4.57;;;17.30;1.00;;;;;;4955056;28;20058;-35
2023/04/17 06:16:38;;;;;;;6.45;4.60;;;17.30;1.00;;;;;;5002080;28;20515;-35
2023/04/17 06:19:07;;;;;;;7.13;5.40;;;17.30;1.00;;;;;;5052997;28;20525;-35
2023/04/17 06:21:34;;;;;;;6.63;5.10;;;17.30;1.00;;;;;;5051797;28;20464;-35
2023/04/17 06:24:01;;;;;;;6.95;4.85;;;17.30;1.00;;;;;;5050745;28;20524;-35
2023/04/17 06:26:28;;;;;;;7.10;4.95;;;17.30;1.00;;;;;;5051556;28;20496;-35
2023/04/17 06:28:55;;;;;;;8.27;4.43;;;17.30;1.00;;;;;;5051518;28;20563;-35
2023/04/17 06:31:23;;;;;;;7.60;5.15;;;17.20;1.00;;;;;;5051572;28;20090;-35
2023/04/17 06:33:50;;;;;;;7.47;5.40;;;17.20;1.00;;;;;;5050479;28;20136;-35
2023/04/17 06:36:21;;;;;;;8.45;4.72;;;17.20;1.00;;;;;;5051296;28;20523;-35
2023/04/17 06:38:52;;;;;;;6.15;4.18;;;17.20;1.00;;;;;;5051243;28;20049;-35
2023/04/17 06:41:20;;;;;;;7.45;4.20;;;17.20;1.00;;;;;;5051308;28;20037;-35
2023/04/17 06:43:46;;;;;;;6.57;4.57;;;17.20;1.00;;;;;;5050390;28;20496;-35
2023/04/17 06:46:14;;;;;;;8.40;4.78;;;17.20;1.00;;;;;;5051050;28;20045;-35
2023/04/17 06:48:40;;;;;;;6.45;4.32;;;17.20;1.00;;;;;;5052548;28;20285;-35
2023/04/17 06:51:07;;;;;;;9.18;4.57;;;17.20;1.00;;;;;;5052417;28;20033;-35
2023/04/17 06:53:34;;;;;;;5.88;4.05;;;17.20;1.00;;;;;;5051566;28;20048;-35
2023/04/17 06:56:01;;;;;;;7.38;5.22;;;17.20;1.00;;;;;;5052255;28;20080;-35
2023/04/17 06:58:28;;;;;;;10.15;6.03;;;17.10;1.00;;;;;;5052122;28;20558;-35
2023/04/17 07:00:55;;;;;;;6.47;4.97;;;17.20;1.00;;;;;;5052220;28;20124;-35
2023/04/17 07:03:22;;;;;;;8.15;5.05;;;17.20;1.00;;;;;;5051315;28;20481;-35
2023/04/17 07:05:49;;;;;;;9.00;5.43;;;17.10;1.00;;;;;;5052209;28;20045;-35
2023/04/17 07:08:21;;;;;;;9.15;5.35;;;17.10;1.00;;;;;;5052141;28;20128;-35
2023/04/17 07:10:47;;;;;;;7.20;5.18;;;17.10;1.00;;;;;;5051829;28;20049;-35
2023/04/17 07:13:14;;;;;;;7.20;4.40;;;17.10;1.00;;;;;;5051220;28;20052;-35
2023/04/17 07:15:41;;;;;;;8.55;5.00;;;17.10;1.00;;;;;;5051900;28;20041;-35
2023/04/17 07:18:08;;;;;;;7.15;4.55;;;17.10;1.00;;;;;;5051860;28;20128;-35
2023/04/17 07:20:35;;;;;;;5.53;4.18;;;17.10;1.00;;;;;;5052066;28;20099;-35
2023/04/17 07:23:01;;;;;;;8.85;5.57;;;17.10;1.00;;;;;;5051119;28;20068;-35
2023/04/17 07:25:28;;;;;;;7.32;5.05;;;17.10;1.00;;;;;;5051963;28;20053;-35
2023/04/17 07:27:55;;;;;;;7.85;5.85;;;17.10;1.00;;;;;;5051725;28;20103;-35
2023/04/17 07:30:22;;;;;;;7.68;5.05;;;17.00;1.00;;;;;;5051997;28;20403;-35
2023/04/17 07:32:49;;;;;;;6.18;4.80;;;17.10;1.00;;;;;;5051070;28;20041;-35
2023/04/17 07:35:16;;;;;;;9.43;5.43;;;17.10;1.00;;;;;;5051805;28;20041;-35
2023/04/17 07:37:42;;;;;;;7.20;5.03;;;17.00;1.00;;;;;;5051762;28;20555;-35
2023/04/17 07:40:10;;;;;;;7.82;5.18;;;17.10;1.00;;;;;;5051788;28;20041;-35
2023/04/17 07:42:37;;;;;;;7.07;4.95;;;17.10;1.00;;;;;;5051073;28;20037;-35
2023/04/17 07:45:05;;;;;;;7.35;4.65;;;17.00;1.00;;;;;;5051761;28;20090;-35
2023/04/17 07:47:32;;;;;;;9.63;5.78;;;17.00;1.00;;;;;;5051855;28;20049;-35
2023/04/17 07:49:59;;;;;;;10.18;5.97;;;17.00;1.00;;;;;;5051540;28;20045;-35
2023/04/17 07:52:26;;;;;;;9.18;5.15;;;17.00;1.00;;;;;;5051156;28;20127;-35
2023/04/17 07:54:53;;;;;;;8.02;5.45;;;17.00;1.00;;;;;;5051077;28;20041;-35
2023/04/17 07:57:20;;;;;;;7.00;5.47;;;17.00;1.00;;;;;;5051257;28;20056;-35
2023/04/17 07:59:47;;;;;;;8.25;6.47;;;17.00;1.00;;;;;;5051641;28;20477;-35
2023/04/17 08:02:15;;;;;;;7.07;5.47;;;17.00;1.00;;;;;;5051285;28;20484;-35
2023/04/17 08:04:43;;;;;;;7.40;4.82;;;17.00;1.00;;;;;;5051125;28;20045;-35
2023/04/17 08:07:11;;;;;;;10.32;5.45;;;17.00;1.00;;;;;;5051522;28;20051;-35
2023/04/17 08:09:38;;;;;;;10.63;6.13;;;17.00;1.00;;;;;;5051435;28;20072;-35
2023/04/17 08:12:08;;;;;;;7.50;4.93;;;16.90;1.00;;;;;;5051311;28;20128;-35
2023/04/17 08:14:35;;;;;;;9.27;5.40;;;17.00;1.00;;;;;;5050649;28;20099;-35
2023/04/17 08:17:02;;;;;;;10.02;5.75;;;17.00;1.00;;;;;;5051253;28;20480;-35
2023/04/17 08:19:29;;;;;;;9.05;5.13;;;16.90;1.00;;;;;;5051413;28;20044;-35
2023/04/17 08:22:01;;;;;;;9.90;5.72;;;16.90;1.00;;;;;;5051438;28;20037;-35
2023/04/17 08:24:30;;;;;;;11.38;7.10;;;17.00;1.00;;;;;;5054105;28;20048;-36
2023/04/17 08:26:57;;;;;;;9.80;5.68;;;16.90;1.00;;;;;;5055285;28;20102;-35
2023/04/17 08:29:25;;;;;;;9.55;5.68;;;16.90;1.00;;;;;;5055198;28;20041;-35
2023/04/17 08:31:52;;;;;;;10.45;6.68;;;16.90;1.00;;;;;;5055206;28;20041;-35
2023/04/17 08:34:32;;;;;;;8.40;5.80;;;16.90;1.00;;;;;;5054582;28;20077;-35
2023/04/17 08:36:59;;;;;;;9.10;6.72;;;16.90;1.00;;;;;;5054956;28;20040;-35
2023/04/17 08:39:26;;;;;;;10.43;6.70;;;16.90;1.00;;;;;;5054927;28;20048;-35
2023/04/17 08:42:02;;;;;;;9.95;6.45;;;16.90;1.00;;;;;;5054868;28;20072;-35
2023/04/17 08:44:31;;;;;;;8.82;5.57;;;16.90;1.00;;;;;;5054087;28;20128;-31
2023/04/17 08:46:58;;;;;;;9.75;4.97;;;16.90;1.00;;;;;;5054808;28;20447;-35
2023/04/17 08:49:28;;;;;;;8.07;5.80;;;16.90;1.00;;;;;;5054564;28;20044;-35
2023/04/17 08:51:55;;;;;;;7.38;5.68;;;16.90;1.00;;;;;;5054735;28;20049;-35
2023/04/17 08:54:22;;;;;;;9.15;5.68;;;16.90;1.00;;;;;;5053898;28;20063;-35
2023/04/17 08:56:49;;;;;;;9.00;5.45;;;16.90;1.00;;;;;;5054544;28;20033;-35
2023/04/17 08:59:16;;;;;;;8.05;5.78;;;16.90;1.00;;;;;;5054539;28;20452;-35
2023/04/17 09:02:02;;;;;;;9.13;5.55;;;16.90;1.00;;;;;;5054174;28;20063;-35
2023/04/17 09:04:48;;;;;;;10.35;6.15;;;16.90;1.00;;;;;;5053828;28;20045;-36
2023/04/17 09:07:15;;;;;;;12.20;6.60;;;16.90;1.00;;;;;;5054712;28;20072;-35
2023/04/17 09:09:55;;;;;;;6.43;4.55;;;16.90;1.00;;;;;;5054475;28;20508;-35
2023/04/17 09:12:24;;;;;;;8.45;6.00;;;16.90;1.00;;;;;;5053951;28;20041;-35
2023/04/17 09:14:51;;;;;;;9.60;6.70;;;16.90;1.00;;;;;;5053906;28;20077;-35
2023/04/17 09:17:19;;;;;;;9.75;6.35;;;16.90;1.00;;;;;;5054404;28;20047;-35
2023/04/17 09:20:07;;;;;;;10.98;6.05;;;16.90;1.00;;;;;;5054270;28;20041;-35
2023/04/17 09:22:39;;;;;;;8.60;5.85;;;16.90;1.00;;;;;;5053650;28;20076;-35
2023/04/17 09:25:19;;;;;;;10.32;6.20;;;16.80;1.00;;;;;;5054411;28;20471;-35
2023/04/17 09:27:46;;;;;;;11.13;5.65;;;16.90;1.00;;;;;;5053976;28;20106;-35
2023/04/17 09:30:13;;;;;;;8.18;4.97;;;16.80;1.00;;;;;;5054107;28;20048;-35
2023/04/17 09:32:40;;;;;;;8.20;5.55;;;16.80;1.00;;;;;;5053117;28;20500;-35
2023/04/17 09:35:07;;;;;;;8.75;5.70;;;16.80;1.00;;;;;;5053354;28;20051;-35
2023/04/17 09:37:51;;;;;;;9.40;5.43;;;16.80;1.00;;;;;;5053684;28;20542;-35
2023/04/17 09:40:19;;;;;;;9.02;5.68;;;16.80;1.00;;;;;;5053793;28;20044;-35
2023/04/17 09:43:03;;;;;;;9.77;5.68;;;16.80;1.00;;;;;;5053103;28;20045;-35
2023/04/17 09:45:38;;;;;;;7.60;5.57;;;16.80;1.00;;;;;;5053495;28;20045;-35
2023/04/17 09:48:07;;;;;;;8.30;5.57;;;16.80;1.00;;;;;;5053647;28;20550;-35
2023/04/17 09:50:35;;;;;;;9.85;5.45;;;16.80;1.00;;;;;;5053973;28;20127;-35
2023/04/17 09:53:06;;;;;;;6.85;5.20;;;16.80;1.00;;;;;;5052732;28;20052;-35
2023/04/17 09:55:35;;;;;;;8.05;5.55;;;16.80;1.00;;;;;;5053464;28;20083;-35
2023/04/17 09:58:04;;;;;;;7.15;5.20;;;16.80;1.00;;;;;;5053270;28;20040;-35
2023/04/17 10:00:30;;;;;;;12.63;6.05;;;16.80;1.00;;;;;;5053315;28;20079;-35
2023/04/17 10:02:58;;;;;;;7.60;5.85;;;16.80;1.00;;;;;;5052388;28;20045;-35
2023/04/17 10:05:28;;;;;;;11.93;6.25;;;16.80;1.00;;;;;;5053397;28;20420;-35
2023/04/17 10:07:56;;;;;;;7.47;6.00;;;16.80;1.00;;;;;;5053410;28;20076;-35
2023/04/17 10:10:32;;;;;;;8.52;6.07;;;16.80;1.00;;;;;;5053244;28;20444;-35
2023/04/17 10:13:02;;;;;;;8.95;5.43;;;16.80;1.00;;;;;;5052743;28;20443;-35
2023/04/17 10:15:35;;;;;;;8.32;5.43;;;16.80;1.00;;;;;;5053231;28;20051;-35
2023/04/17 10:18:33;;;;;;;10.00;5.55;;;16.80;1.00;;;;;;5051487;28;20045;-35
2023/04/17 10:21:33;;;;;;;8.00;5.32;;;16.80;1.00;;;;;;5052985;28;20044;-35
2023/04/17 10:24:29;;;;;;;10.88;5.68;;;16.80;1.00;;;;;;5052263;28;20110;-35
2023/04/17 10:27:17;;;;;;;9.45;5.75;;;16.80;1.00;;;;;;5052793;28;20606;-34
2023/04/17 10:29:55;;;;;;;8.55;5.57;;;16.80;1.00;;;;;;5052958;28;20040;-34
2023/04/17 10:32:24;;;;;;;8.80;6.15;;;16.80;1.00;;;;;;5052330;28;20048;-35
2023/04/17 10:35:03;;;;;;;9.18;5.40;;;16.80;1.00;;;;;;5052322;28;20048;-35
2023/04/17 10:38:17;;;;;;;7.60;5.40;;;16.80;1.00;;;;;;5052592;28;20564;-34
2023/04/17 10:42:06;;;;;;;10.25;6.25;;;16.80;1.00;;;;;;5052619;28;20048;-34
2023/04/17 10:44:40;;;;;;;8.43;4.72;;;16.80;1.00;;;;;;5051591;28;20109;-35
2023/04/17 10:47:23;;;;;;;;;;;16.80;1.00;;;;;;5052314;28;20124;-34
2023/04/17 10:49:57;;;;;;;10.02;6.00;;;16.80;1.00;;;;;;5052225;28;19927;-35
2023/04/17 10:52:34;;;;;;;8.13;5.55;;;16.80;1.00;;;;;;5050786;28;20045;-34
2023/04/17 10:55:06;;;;;;;7.60;5.50;;;16.80;1.00;;;;;;5049142;28;20047;-34
2023/04/17 10:58:02;;;;;;;8.27;5.57;;;16.80;1.00;;;;;;5032468;28;20304;-35
2023/04/17 11:00:48;;;;;;;6.70;5.18;;;16.80;1.00;;;;;;5032292;28;20103;-35
2023/04/17 11:03:15;;;;;;;9.75;5.43;;;16.80;1.00;;;;;;5031585;28;20041;-35
2023/04/17 11:05:46;;;;;;;9.43;5.50;;;16.80;1.00;;;;;;5032203;28;20551;-35
2023/04/17 11:08:13;;;;;;;6.07;4.88;;;16.90;1.00;;;;;;5032131;28;20045;-34
2023/04/17 11:10:40;;;;;;;10.75;5.72;;;16.80;1.00;;;;;;5032240;28;20057;-34
2023/04/17 11:13:07;;;;;;;9.48;5.68;;;16.80;1.00;;;;;;5031234;28;20507;-34
2023/04/17 11:15:34;;;;;;;10.43;5.97;;;16.90;1.00;;;;;;5031952;28;20050;-34
2023/04/17 11:18:02;;;;;;;9.45;6.18;;;16.90;1.00;;;;;;5032027;28;20080;-35
2023/04/17 11:20:30;;;;;;;8.35;5.63;;;16.90;1.00;;;;;;5030674;28;20099;-34
2023/04/17 11:23:02;;;;;;;14.43;6.70;;;16.90;1.00;;;;;;5031243;28;20128;-35
2023/04/17 11:25:30;;;;;;;12.32;6.70;;;16.90;1.00;;;;;;5031894;28;20501;-35
2023/04/17 11:27:59;;;;;;;9.25;5.57;;;16.90;1.00;;;;;;5031937;28;20320;-35
2023/04/17 11:30:43;;;;;;;9.73;6.07;;;16.90;1.00;;;;;;5031981;28;20504;-35
2023/04/17 11:33:14;;;;;;;8.07;6.10;;;16.90;1.00;;;;;;5031059;28;20049;-34
2023/04/17 11:35:41;;;;;;;8.77;6.30;;;16.90;1.00;;;;;;5031911;28;20077;-35
2023/04/17 11:38:19;;;;;;;9.43;6.82;;;16.90;1.00;;;;;;5031705;28;20049;-35
2023/04/17 11:40:52;;;;;;;10.20;6.28;;;16.90;1.00;;;;;;5031951;28;20045;-35
2023/04/17 11:43:21;;;;;;;8.48;6.50;;;16.90;1.00;;;;;;5030988;28;20053;-35
2023/04/17 11:45:55;;;;;;;8.40;5.60;;;16.90;1.00;;;;;;5031752;28;20045;-35
2023/04/17 11:48:27;;;;;;;10.90;6.00;;;16.90;1.00;;;;;;5031680;28;20063;-35
2023/04/17 11:51:03;;;;;;;9.15;6.53;;;16.90;1.00;;;;;;5031872;28;20120;-35
2023/04/17 11:53:31;;;;;;;11.70;6.82;;;16.90;1.00;;;;;;5030966;28;20049;-35
2023/04/17 11:56:18;;;;;;;9.85;6.45;;;16.90;1.00;;;;;;5031847;28;20481;-35
2023/04/17 11:58:46;;;;;;;8.70;5.97;;;16.90;1.00;;;;;;5035636;28;20107;-35
2023/04/17 12:01:14;;;;;;;11.95;7.03;;;16.90;1.00;;;;;;5035803;28;20049;-35
2023/04/17 12:03:41;;;;;;;16.35;9.90;;;16.90;1.00;;;;;;5034265;28;20391;-35
2023/04/17 12:06:12;;;;;;;16.75;10.32;;;16.90;1.00;;;;;;5055548;28;20449;-35
2023/04/17 12:08:52;;;;;;;17.92;10.50;;;16.90;1.00;;;;;;5034800;28;20073;-35
2023/04/17 12:11:24;;;;;;;18.25;11.18;;;16.90;1.00;;;;;;5045515;28;20524;-34
2023/04/17 12:13:55;;;;;;;18.15;10.23;;;16.90;1.00;;;;;;5054320;28;20045;-35
2023/04/17 12:16:23;;;;;;;15.90;9.95;;;16.90;1.00;;;;;;5045564;28;20095;-35
2023/04/17 12:18:51;;;;;;;15.38;11.10;;;16.90;1.00;;;;;;5049876;28;20060;-34
2023/04/17 12:21:22;;;;;;;18.33;11.32;;;16.90;1.00;;;;;;5054701;28;20065;-35
2023/04/17 12:23:49;;;;;;;16.55;10.98;;;16.90;1.00;;;;;;5033962;28;20444;-35
2023/04/17 12:26:16;;;;;;;19.60;12.00;;;16.90;1.00;;;;;;5027564;28;20045;-34
2023/04/17 12:28:43;;;;;;;23.08;11.90;;;16.90;1.00;;;;;;5026886;28;20096;-35
2023/04/17 12:31:10;;;;;;;22.33;12.38;;;16.90;1.00;;;;;;5024099;28;20038;-35
2023/04/17 12:33:37;;;;;;;19.55;11.88;;;16.90;1.00;;;;;;5024333;28;20466;-35
2023/04/17 12:36:05;;;;;;;18.48;11.80;;;16.90;1.00;;;;;;5030694;28;20141;-35
2023/04/17 12:38:32;;;;;;;22.13;13.90;;;16.80;1.00;;;;;;5029230;28;20042;-35
2023/04/17 12:40:59;;;;;;;18.02;11.05;;;16.80;1.00;;;;;;5024455;28;20041;-35
2023/04/17 12:43:26;;;;;;;19.10;11.10;;;16.80;1.00;;;;;;5022765;28;20037;-35
2023/04/17 12:45:53;;;;;;;17.33;10.57;;;16.80;1.00;;;;;;5022376;28;20053;-35
2023/04/17 12:48:19;;;;;;;17.83;10.93;;;16.80;1.00;;;;;;5033453;28;20056;-35
2023/04/17 12:50:46;;;;;;;17.27;11.30;;;16.80;1.00;;;;;;5039402;28;20041;-35
2023/04/17 12:53:14;;;;;;;17.63;9.95;;;16.80;1.00;;;;;;5035310;28;20048;-35
2023/04/17 12:55:42;;;;;;;21.02;11.15;;;16.80;1.00;;;;;;5030316;28;20092;-35
2023/04/17 12:58:11;;;;;;;17.75;10.23;;;16.80;1.00;;;;;;5023335;28;20125;-35
2023/04/17 13:00:39;;;;;;;18.88;11.05;;;16.80;1.00;;;;;;5024056;28;20038;-35
2023/04/17 13:03:06;;;;;;;19.52;11.35;;;16.80;1.00;;;;;;5027941;28;20038;-35
2023/04/17 13:05:33;;;;;;;20.48;11.80;;;16.80;1.00;;;;;;5036107;28;20048;-35
2023/04/17 13:08:00;;;;;;;16.50;11.23;;;16.80;1.00;;;;;;5021896;28;20129;-35
2023/04/17 13:10:27;;;;;;;16.92;11.07;;;16.80;1.00;;;;;;5014371;28;20042;-35